Terminal Aerodrome Forecast
Issued by NWS

Home | Current Version | Previous Version | Text Only | Print | Product List | Glossary On
Versions: 1 2 3 4 5 6 7 8 9 10 11 12 13 14 15 16 17 18 19 20 21 22 23 24 25 26 27 28 29 30 31 32 33
000
FTUS44 KLIX 242344
TAFASD
TAF
KASD 242344Z 2500/2524 00000KT P6SM FEW050 SCT090 BKN110
     FM250900 00000KT P6SM BKN150
     FM251200 VRB03KT P6SM SHRA VCTS BKN090CB=

USA.gov is the U.S. government's official web portal to all federal, state and local government web resources and services.